Time;durP1;ratioP1;P1;durP2;ratioP2;P2;SDS_P1;SDS_P2;PMS_P1;PMS_P2;Temp;Humidity;BMP_temperature;BMP_pressure;BME280_temperature;BME280_humidity;BME280_pressure;Samples;Min_cycle;Max_cycle;Signal;HPM_P1;HPM_P2
2021/01/06 00:02:51;;;;;;;25.00;16.88;;;;;;;3.10;99.08;101722.03;10353208;28;20073;-76
2021/01/06 00:07:51;;;;;;;30.15;18.15;;;;;;;2.83;99.22;101680.69;10364715;28;20129;-76
2021/01/06 00:12:52;;;;;;;28.70;18.13;;;;;;;3.02;99.05;101709.31;10383455;28;20041;-76
2021/01/06 00:17:52;;;;;;;30.13;17.92;;;;;;;3.15;99.18;101724.63;10383480;28;20052;-76
2021/01/06 00:22:53;;;;;;;27.98;17.30;;;;;;;3.21;98.94;101712.81;10368473;28;20060;-76
2021/01/06 00:27:56;;;;;;;28.75;17.52;;;;;;;3.17;99.42;101711.78;10376446;28;20489;-76
2021/01/06 00:32:57;;;;;;;31.27;17.75;;;;;;;3.19;98.75;101709.63;10338601;28;20072;-76
2021/01/06 00:37:58;;;;;;;30.35;16.85;;;;;;;3.10;98.57;101695.31;10352321;28;20124;-76
2021/01/06 00:43:04;;;;;;;32.15;18.02;;;;;;;2.90;98.27;101657.09;10379354;28;20133;-76
2021/01/06 00:48:05;;;;;;;32.85;18.65;;;;;;;3.13;98.99;101697.44;10362834;28;20084;-76
2021/01/06 00:53:11;;;;;;;28.08;16.30;;;;;;;2.97;98.85;101681.59;10381178;28;20779;-76
2021/01/06 00:58:12;;;;;;;29.33;16.05;;;;;;;3.03;98.90;101668.16;10354363;28;20409;-76
2021/01/06 01:03:13;;;;;;;35.60;19.00;;;;;;;3.18;98.61;101702.69;10359504;28;20052;-76
2021/01/06 01:08:14;;;;;;;37.13;19.88;;;;;;;3.12;98.96;101693.16;10350340;28;20076;-75
2021/01/06 01:13:22;;;;;;;33.25;18.42;;;;;;;3.22;98.69;101703.69;10334905;28;20062;-75
2021/01/06 01:18:28;;;;;;;29.40;17.47;;;;;;;2.83;98.42;101643.31;10338276;28;20087;-76
2021/01/06 01:23:28;;;;;;;31.80;18.98;;;;;;;2.87;98.69;101644.34;10327825;28;20034;-76
2021/01/06 01:28:29;;;;;;;37.13;18.70;;;;;;;3.19;98.80;101731.00;10338894;28;20096;-76
2021/01/06 01:33:30;;;;;;;28.70;17.65;;;;;;;3.17;98.70;101701.09;10328837;28;20043;-76
2021/01/06 01:38:30;;;;;;;33.72;18.92;;;;;;;3.15;98.75;101689.91;10332169;28;20054;-76
2021/01/06 01:43:32;;;;;;;30.95;17.65;;;;;;;3.07;99.04;101690.56;10339479;28;20042;-76
2021/01/06 01:48:39;;;;;;;30.98;18.25;;;;;;;3.18;98.39;101692.00;10311405;28;20540;-76
2021/01/06 01:53:44;;;;;;;29.58;17.10;;;;;;;3.08;98.38;101676.91;10321372;28;20141;-77
2021/01/06 01:58:47;;;;;;;29.85;16.70;;;;;;;3.22;98.08;101695.69;10333007;28;20065;-76
2021/01/06 02:03:56;;;;;;;26.30;15.98;;;;;;;3.30;97.42;101716.44;10337064;28;20038;-76
2021/01/06 02:09:00;;;;;;;27.92;17.15;;;;;;;2.96;97.72;101658.63;10332636;28;20110;-76
2021/01/06 02:14:06;;;;;;;26.52;15.85;;;;;;;3.23;98.03;101710.66;10350743;28;20064;-76
2021/01/06 02:19:07;;;;;;;27.65;16.08;;;;;;;3.20;98.18;101705.88;10341597;28;20045;-78
2021/01/06 02:24:08;;;;;;;27.15;15.85;;;;;;;2.95;98.65;101673.06;10342174;28;20390;-78
2021/01/06 02:29:10;;;;;;;27.58;16.30;;;;;;;2.81;98.35;101655.38;10334652;28;20033;-78
2021/01/06 02:34:11;;;;;;;27.83;15.90;;;;;;;3.17;98.68;101701.09;10340761;28;20045;-78
2021/01/06 02:39:12;;;;;;;28.25;16.27;;;;;;;2.81;98.39;101650.81;10327595;28;20042;-78
2021/01/06 02:44:13;;;;;;;25.70;15.82;;;;;;;3.18;98.61;101702.69;10323213;28;20049;-78
2021/01/06 02:49:16;;;;;;;24.88;15.45;;;;;;;2.99;97.72;101657.28;10323575;28;20046;-78
2021/01/06 02:54:32;;;;;;;26.50;15.18;;;;;;;3.23;97.79;101689.25;10329689;28;20541;-78
2021/01/06 02:59:42;;;;;;;26.20;15.77;;;;;;;3.27;97.91;101695.63;10339669;28;20046;-78
2021/01/06 03:04:50;;;;;;;24.70;15.35;;;;;;;2.91;97.93;101640.00;10329335;28;20113;-78
2021/01/06 03:09:50;;;;;;;28.33;15.40;;;;;;;3.41;96.89;101694.91;10345155;28;20600;-78
2021/01/06 03:14:51;;;;;;;24.30;14.02;;;;;;;3.05;96.55;101655.31;10364726;28;20107;-78
2021/01/06 03:19:54;;;;;;;22.98;15.43;;;;;;;3.41;96.68;101700.25;10373019;28;20493;-78
2021/01/06 03:24:59;;;;;;;26.05;15.60;;;;;;;3.28;96.94;101689.19;10354497;28;20187;-78
2021/01/06 03:30:00;;;;;;;23.33;14.18;;;;;;;3.34;96.90;101690.72;10362744;28;20570;-78
2021/01/06 03:35:09;;;;;;;21.08;12.60;;;;;;;3.35;97.08;101696.84;10365622;28;20033;-78
2021/01/06 03:40:17;;;;;;;19.77;13.05;;;;;;;3.18;95.86;101686.66;10356811;28;20474;-78
2021/01/06 03:45:21;;;;;;;19.50;12.68;;;;;;;2.93;95.77;101648.50;10376000;28;20048;-78
2021/01/06 03:50:45;;;;;;;17.45;11.15;;;;;;;3.16;96.05;101678.13;10325282;28;20038;-78
2021/01/06 03:55:56;;;;;;;13.95;10.13;;;;;;;3.31;94.94;101685.94;10372722;28;20112;-77
2021/01/06 04:01:05;;;;;;;14.52;9.80;;;;;;;3.28;93.77;101675.84;10376492;28;20554;-76
2021/01/06 04:06:07;;;;;;;15.38;10.57;;;;;;;2.91;94.22;101628.53;10358801;28;20094;-75
2021/01/06 04:11:08;;;;;;;14.35;9.57;;;;;;;3.29;93.77;101672.09;10351204;28;20557;-76
2021/01/06 04:16:09;;;;;;;14.57;9.77;;;;;;;3.16;93.98;101664.78;10345822;28;20045;-76
2021/01/06 04:21:10;;;;;;;17.23;10.13;;;;;;;3.36;92.69;101677.88;10375169;28;20686;-76
2021/01/06 04:26:13;;;;;;;15.57;10.40;;;;;;;3.14;94.25;101685.66;10376660;28;20038;-76
2021/01/06 04:31:19;;;;;;;17.98;10.77;;;;;;;3.10;94.82;101668.59;10353674;28;20041;-76
2021/01/06 04:36:23;;;;;;;16.00;10.75;;;;;;;2.52;95.35;101595.66;10327505;28;20036;-76
2021/01/06 04:41:23;;;;;;;15.73;10.80;;;;;;;3.09;95.81;101683.03;10348653;28;20041;-77
2021/01/06 04:47:02;;;;;;;17.80;12.38;;;;;;;3.18;95.58;101675.97;10356410;28;20037;-75
2021/01/06 04:52:21;;;;;;;17.10;11.00;;;;;;;3.22;95.36;101685.00;10358259;28;20034;-76
2021/01/06 04:57:30;;;;;;;17.42;11.57;;;;;;;2.81;93.83;101597.41;10379681;28;20065;-76
2021/01/06 05:02:49;;;;;;;17.95;12.05;;;;;;;3.27;93.64;101679.59;10348518;28;20034;-77
2021/01/06 05:08:09;;;;;;;15.60;11.13;;;;;;;3.15;94.23;101665.84;10372342;28;20395;-76
2021/01/06 05:13:20;;;;;;;18.23;11.98;;;;;;;3.17;94.84;101677.03;10355776;28;20045;-77
2021/01/06 05:18:26;;;;;;;22.45;11.40;;;;;;;3.07;94.72;101663.84;10363099;28;20045;-76
2021/01/06 05:23:28;;;;;;;17.20;11.48;;;;;;;3.00;94.48;101652.72;10361287;28;20123;-77
2021/01/06 05:28:29;;;;;;;18.10;12.40;;;;;;;2.99;93.95;101635.09;10354939;28;20033;-77
2021/01/06 05:33:46;;;;;;;21.20;11.95;;;;;;;3.16;94.16;101683.50;10370065;28;20061;-76
2021/01/06 05:38:46;;;;;;;17.63;12.77;;;;;;;2.89;94.84;101652.84;10342968;28;20108;-76
2021/01/06 05:43:54;;;;;;;17.88;11.73;;;;;;;3.15;94.08;101679.22;10350546;28;20042;-77
2021/01/06 05:48:59;;;;;;;18.85;12.93;;;;;;;2.79;94.35;101636.94;10389861;28;20037;-76
2021/01/06 05:54:14;;;;;;;17.70;11.95;;;;;;;3.11;94.03;101680.88;10352648;28;20121;-77
2021/01/06 05:59:35;;;;;;;18.08;11.85;;;;;;;2.88;94.19;101658.47;10379153;28;20045;-76
2021/01/06 06:04:46;;;;;;;17.33;11.30;;;;;;;3.07;93.83;101671.84;10369031;28;20434;-77
2021/01/06 06:10:13;;;;;;;24.65;17.10;;;;;;;2.57;94.50;101618.03;10371094;28;20084;-78
2021/01/06 06:15:31;;;;;;;21.05;13.63;;;;;;;2.88;95.08;101688.63;10343639;28;20470;-78
2021/01/06 06:20:56;;;;;;;21.23;12.85;;;;;;;2.79;95.17;101678.88;10358087;28;20040;-78
2021/01/06 06:26:19;;;;;;;19.05;13.10;;;;;;;2.78;95.54;101683.44;10362506;28;20477;-78
2021/01/06 06:31:25;;;;;;;19.55;11.88;;;;;;;2.74;94.76;101677.06;10378292;28;20180;-76
2021/01/06 06:36:30;;;;;;;18.88;12.45;;;;;;;2.80;94.57;101686.63;10362779;28;20049;-77
2021/01/06 06:41:33;;;;;;;17.35;11.77;;;;;;;2.70;95.20;101686.72;10333600;28;20153;-75
2021/01/06 06:46:54;;;;;;;20.38;12.00;;;;;;;2.71;95.37;101696.34;10365828;28;20037;-75
2021/01/06 06:52:00;;;;;;;20.55;12.88;;;;;;;2.68;95.33;101694.22;10366244;28;20026;-75
2021/01/06 06:57:11;;;;;;;17.95;12.88;;;;;;;2.54;95.92;101689.56;10357710;28;20658;-75
2021/01/06 07:02:12;;;;;;;18.35;11.93;;;;;;;2.67;95.37;101692.63;10367821;28;20045;-78
2021/01/06 07:07:34;;;;;;;20.10;12.90;;;;;;;2.72;95.17;101695.25;10350062;28;20052;-78
2021/01/06 07:12:37;;;;;;;17.73;12.07;;;;;;;1.84;94.79;101558.53;10329139;28;20475;-75
2021/01/06 07:17:43;;;;;;;18.17;11.75;;;;;;;2.72;94.93;101711.25;10365330;28;20490;-78
2021/01/06 07:22:48;;;;;;;20.00;12.35;;;;;;;2.57;94.80;101692.75;10342583;28;20067;-76
2021/01/06 07:27:56;;;;;;;21.05;12.65;;;;;;;2.48;95.35;101685.34;10357746;28;20354;-77
2021/01/06 07:32:58;;;;;;;20.23;12.85;;;;;;;2.15;94.63;101624.88;10326453;28;20447;-78
2021/01/06 07:38:30;;;;;;;;;;;;;;;;;;;;;
2021/01/06 07:44:58;;;;;;;22.20;13.68;;;;;;;1.64;94.62;101576.28;10327988;28;20046;-78
2021/01/06 07:50:08;;;;;;;21.02;12.38;;;;;;;2.15;94.63;101660.34;10376411;28;20144;-78
2021/01/06 07:56:02;;;;;;;19.60;12.52;;;;;;;2.59;95.64;101733.28;10340082;28;20115;-80
2021/01/06 08:01:07;;;;;;;19.30;12.23;;;;;;;2.54;96.07;101726.94;10332657;28;20045;-75
2021/01/06 08:06:08;;;;;;;19.05;12.68;;;;;;;2.59;96.41;101727.94;10355575;28;20034;-76
2021/01/06 08:11:32;;;;;;;19.48;12.93;;;;;;;2.65;95.96;101742.84;10374250;28;20049;-78
2021/01/06 08:16:44;;;;;;;19.98;12.98;;;;;;;2.49;96.06;101724.31;10356933;28;20180;-78
2021/01/06 08:22:10;;;;;;;20.88;12.18;;;;;;;2.59;96.44;101751.97;10334422;28;20049;-76
2021/01/06 08:27:16;;;;;;;19.63;11.90;;;;;;;2.25;96.20;101699.47;10350476;28;20073;-77
2021/01/06 08:32:17;;;;;;;18.95;12.35;;;;;;;2.63;95.35;101745.78;10344871;28;20393;-77
2021/01/06 08:37:23;;;;;;;23.65;12.55;;;;;;;2.50;96.07;101741.91;10382208;28;20037;-76
2021/01/06 08:42:37;;;;;;;22.58;14.02;;;;;;;2.50;95.08;101731.25;10358049;28;20474;-76
2021/01/06 08:47:39;;;;;;;20.27;13.13;;;;;;;2.57;95.19;101751.47;10346620;28;20046;-77
2021/01/06 08:52:42;;;;;;;19.42;12.77;;;;;;;2.61;94.58;101741.81;10365038;28;20038;-77
2021/01/06 08:57:42;;;;;;;18.45;12.82;;;;;;;2.73;93.95;101760.94;10373950;28;20033;-77
2021/01/06 09:02:47;;;;;;;19.08;12.65;;;;;;;2.49;92.90;101713.66;10367738;28;20064;-76
2021/01/06 09:07:53;;;;;;;19.77;12.07;;;;;;;2.34;93.38;101716.47;10354546;28;20030;-75
2021/01/06 09:13:11;;;;;;;17.33;11.80;;;;;;;2.63;94.15;101761.00;10343600;28;20421;-76
2021/01/06 09:18:16;;;;;;;18.67;13.32;;;;;;;2.61;93.68;101768.50;10357373;28;20604;-75
2021/01/06 09:23:24;;;;;;;17.38;12.13;;;;;;;2.15;93.16;101702.25;10337294;28;20076;-77
2021/01/06 09:28:25;;;;;;;19.08;12.60;;;;;;;2.62;92.06;101775.44;10345988;28;20061;-78
2021/01/06 09:34:06;;;;;;;25.42;13.75;;;;;;;2.57;93.01;101781.63;10351670;28;20681;-76
2021/01/06 09:39:24;;;;;;;17.65;12.13;;;;;;;1.95;92.79;101703.97;10354260;28;20060;-77
2021/01/06 09:44:28;;;;;;;17.23;12.18;;;;;;;2.45;92.21;101760.66;10353451;28;20140;-77
2021/01/06 09:49:49;;;;;;;18.02;12.35;;;;;;;2.38;92.95;101760.19;10358852;28;20135;-76
2021/01/06 09:55:09;;;;;;;18.90;11.13;;;;;;;2.02;91.24;101683.16;10362558;28;20033;-79
2021/01/06 10:00:23;;;;;;;17.65;11.88;;;;;;;2.56;91.73;101765.88;10363382;28;20030;-75
2021/01/06 10:05:53;;;;;;;15.80;12.00;;;;;;;2.67;91.61;101772.72;10365085;28;20038;-81
2021/01/06 10:10:59;;;;;;;16.02;11.15;;;;;;;2.67;91.16;101756.72;10355109;28;20053;-75
2021/01/06 10:15:59;;;;;;;15.95;11.88;;;;;;;2.70;90.60;101766.81;10371893;28;20046;-79
2021/01/06 10:21:08;;;;;;;16.70;10.85;;;;;;;2.67;90.34;101768.19;10367683;28;20484;-77
2021/01/06 10:26:50;;;;;;;19.20;11.40;;;;;;;2.56;92.18;101760.56;10370736;28;20052;-76
2021/01/06 10:31:57;;;;;;;17.70;11.93;;;;;;;2.35;93.08;101728.72;10382671;28;20037;-79
2021/01/06 10:37:06;;;;;;;19.42;11.65;;;;;;;2.81;91.62;101762.97;10361742;28;20091;-78
2021/01/06 10:42:25;;;;;;;17.05;11.45;;;;;;;2.68;91.02;101752.94;10368601;28;20093;-78
2021/01/06 10:47:34;;;;;;;15.52;10.35;;;;;;;2.73;92.75;101755.59;10372868;28;20033;-78
2021/01/06 10:53:24;;;;;;;17.40;10.75;;;;;;;2.71;91.73;101753.19;10358110;28;20033;-77
2021/01/06 10:58:58;;;;;;;16.83;10.75;;;;;;;2.31;91.85;101685.00;10360497;28;20042;-80
2021/01/06 11:04:23;;;;;;;12.07;9.38;;;;;;;2.70;90.27;101729.44;10369805;28;20041;-76
2021/01/06 11:10:00;;;;;;;13.43;9.15;;;;;;;2.81;90.45;101741.59;10354524;28;20030;-77
2021/01/06 11:15:30;;;;;;;14.90;9.75;;;;;;;2.21;90.40;101637.06;10358285;28;20465;-75
2021/01/06 11:20:39;;;;;;;13.52;9.95;;;;;;;2.30;89.95;101656.72;10346884;28;20100;-79
2021/01/06 11:25:49;;;;;;;13.00;9.48;;;;;;;2.48;90.09;101669.34;10372747;28;20502;-76
2021/01/06 11:31:25;;;;;;;14.23;9.63;;;;;;;2.93;90.63;101720.63;10376498;28;20029;-77
2021/01/06 11:36:38;;;;;;;13.73;9.70;;;;;;;3.02;90.21;101714.66;10308519;28;20037;-77
2021/01/06 11:41:41;;;;;;;;;;;;;;;2.93;90.53;101707.25;10357121;28;20038;-77
2021/01/06 11:46:46;;;;;;;14.88;10.23;;;;;;;2.96;90.81;101701.38;10363812;28;19936;-76
2021/01/06 11:52:24;;;;;;;15.97;10.83;;;;;;;3.07;90.23;101690.56;10345909;28;20033;-77
2021/01/06 11:57:34;;;;;;;12.77;9.40;;;;;;;3.10;89.22;101665.94;10370854;28;20279;-77
2021/01/06 12:02:38;;;;;;;13.85;9.10;;;;;;;3.18;89.06;101670.63;10346469;28;20034;-77
2021/01/06 12:07:48;;;;;;;13.88;9.55;;;;;;;3.29;88.25;101677.44;10351125;28;20037;-76
2021/01/06 12:12:58;;;;;;;16.10;10.25;;;;;;;3.31;88.55;101664.56;10375311;28;20081;-79
2021/01/06 12:18:10;;;;;;;15.77;10.80;;;;;;;3.15;87.67;101628.44;10368769;28;20133;-77
2021/01/06 12:23:15;;;;;;;15.70;10.05;;;;;;;3.44;87.18;101662.25;10352250;28;20041;-81
2021/01/06 12:28:54;;;;;;;15.43;9.88;;;;;;;3.39;87.14;101650.56;10370427;28;20064;-76
2021/01/06 12:34:18;;;;;;;14.90;10.35;;;;;;;3.45;86.84;101653.16;10347942;28;20622;-79
2021/01/06 12:39:45;;;;;;;12.88;8.80;;;;;;;3.63;85.93;101649.66;10246692;28;20450;-78
2021/01/06 12:45:22;;;;;;;12.07;7.65;;;;;;;3.63;83.33;101622.13;10368719;28;20037;-79
2021/01/06 12:50:31;;;;;;;12.60;8.60;;;;;;;3.69;83.59;101632.47;10352225;28;20167;-80
2021/01/06 12:55:49;;;;;;;15.60;8.70;;;;;;;3.45;86.22;101621.06;10353506;28;20091;-78
2021/01/06 13:01:02;;;;;;;15.32;9.30;;;;;;;3.47;84.23;101592.16;10340731;28;20038;-80
2021/01/06 13:06:21;;;;;;;;;;;;;;;3.75;84.10;101636.63;10349755;28;20395;-81
2021/01/06 13:11:49;;;;;;;14.70;9.73;;;;;;;3.35;84.37;101596.09;10370278;28;19921;-80
2021/01/06 13:16:52;;;;;;;13.30;9.18;;;;;;;3.78;84.97;101636.03;10347379;28;20033;-84
2021/01/06 13:22:47;;;;;;;13.13;8.65;;;;;;;3.72;85.65;101631.84;10348619;28;20042;-77
2021/01/06 13:28:02;;;;;;;12.82;8.80;;;;;;;3.94;84.80;101627.75;10365996;28;20037;-82
2021/01/06 13:33:15;;;;;;;12.57;8.95;;;;;;;3.64;83.85;101587.06;10366873;28;20041;-79
2021/01/06 13:38:56;;;;;;;14.07;8.82;;;;;;;2.92;83.63;101481.34;10367033;28;20141;-77
2021/01/06 13:51:03;;;;;;;14.18;8.25;;;;;;;3.94;83.64;101633.09;10232303;28;20034;-84
2021/01/06 13:56:34;;;;;;;12.02;8.15;;;;;;;3.32;84.00;101559.25;10254110;28;20518;-78
2021/01/06 14:02:04;;;;;;;14.02;7.80;;;;;;;3.63;85.00;101606.88;10184176;28;20078;-84
2021/01/06 14:07:11;;;;;;;12.85;8.23;;;;;;;3.63;84.43;101596.19;10255711;28;20050;-82
2021/01/06 14:12:47;;;;;;;11.07;7.53;;;;;;;3.76;84.21;101626.69;10334803;28;20053;-78
2021/01/06 14:24:37;;;;;;;10.00;7.38;;;;;;;3.69;85.85;101621.75;10206426;29;20051;-78
2021/01/06 14:30:34;;;;;;;14.55;8.10;;;;;;;3.62;86.41;101626.66;10205513;29;20059;-79
2021/01/06 14:35:43;;;;;;;14.82;8.10;;;;;;;3.57;86.67;101621.41;10228389;28;20042;-79
2021/01/06 14:40:50;;;;;;;10.52;7.07;;;;;;;3.62;86.23;101632.00;10311710;28;20057;-87
2021/01/06 14:46:45;;;;;;;11.02;6.97;;;;;;;3.72;85.68;101631.84;10379603;28;20045;-81
2021/01/06 14:51:51;;;;;;;12.88;8.10;;;;;;;3.59;85.00;101611.22;10278361;28;20045;-85
2021/01/06 14:56:55;;;;;;;13.18;7.68;;;;;;;3.53;85.97;101612.41;10354661;28;20124;-79
2021/01/06 15:01:58;;;;;;;17.35;8.70;;;;;;;3.63;85.40;101622.91;10352352;28;20046;-80
2021/01/06 15:07:37;;;;;;;15.75;8.80;;;;;;;3.45;86.88;101621.06;10358035;28;20042;-80
2021/01/06 15:12:44;;;;;;;10.95;8.07;;;;;;;2.85;87.65;101537.00;10368006;28;20096;-81
2021/01/06 15:17:44;;;;;;;14.32;8.40;;;;;;;3.27;88.06;101615.47;10342668;28;20041;-82
2021/01/06 15:23:09;;;;;;;14.05;9.32;;;;;;;3.21;88.37;101621.97;10357546;28;20038;-80
2021/01/06 15:28:23;;;;;;;16.17;8.95;;;;;;;3.21;88.82;101632.66;10358229;28;20518;-81
2021/01/06 15:33:52;;;;;;;16.77;10.50;;;;;;;2.72;89.60;101564.41;10350986;28;20041;-81
2021/01/06 15:39:03;;;;;;;16.83;10.20;;;;;;;2.78;90.21;101587.31;10368400;28;20041;-78
2021/01/06 15:44:07;;;;;;;15.30;9.88;;;;;;;3.05;91.12;101639.28;10353474;28;20579;-80
2021/01/06 15:49:22;;;;;;;18.08;10.95;;;;;;;2.79;91.34;101599.56;10329424;28;20099;-77
2021/01/06 15:54:28;;;;;;;16.25;11.05;;;;;;;2.92;91.72;101625.56;10349818;28;20045;-78
2021/01/06 15:59:30;;;;;;;17.23;11.52;;;;;;;2.74;91.41;101607.66;10342713;28;20524;-82
2021/01/06 16:04:35;;;;;;;;;;;;;;;2.87;92.43;101616.81;10335851;28;21733;-82
2021/01/06 16:09:36;;;;;;;18.40;11.45;;;;;;;2.69;93.12;101594.38;10363199;28;19921;-76
2021/01/06 16:14:45;;;;;;;20.40;11.05;;;;;;;2.60;92.87;101580.06;10371396;28;20061;-83
2021/01/06 16:20:08;;;;;;;24.95;15.02;;;;;;;2.79;93.22;101620.94;10361795;28;20064;-80
2021/01/06 16:25:44;;;;;;;22.83;13.32;;;;;;;2.34;93.79;101545.69;10354856;28;20052;-81
2021/01/06 16:30:53;;;;;;;20.58;12.68;;;;;;;2.62;93.88;101599.28;10366811;28;20037;-82
2021/01/06 16:49:03;;;;;;;20.73;12.02;;;;;;;2.19;94.20;101559.19;10048573;29;20143;-82
2021/01/06 16:54:07;;;;;;;20.10;12.07;;;;;;;2.54;94.26;101592.69;10145074;29;20054;-78
2021/01/06 16:59:09;;;;;;;21.50;12.63;;;;;;;2.61;94.82;101613.69;10277577;28;20259;-75
2021/01/06 17:04:11;;;;;;;22.83;12.90;;;;;;;2.08;95.30;101532.66;10348052;28;20061;-76
2021/01/06 17:09:19;;;;;;;20.50;12.30;;;;;;;2.60;94.71;101622.78;10346363;28;20037;-78
2021/01/06 17:14:20;;;;;;;24.77;14.13;;;;;;;2.49;95.20;101596.22;10362619;28;21036;-74
2021/01/06 17:19:21;;;;;;;21.58;13.52;;;;;;;2.54;94.88;101588.16;10311030;28;20692;-77
2021/01/06 17:24:41;;;;;;;19.92;12.80;;;;;;;2.53;95.14;101589.22;10346857;28;20029;-74
2021/01/06 17:29:42;;;;;;;23.17;14.02;;;;;;;2.56;95.58;101584.38;10344217;28;20037;-76
2021/01/06 17:34:43;;;;;;;23.17;13.73;;;;;;;2.65;95.14;101604.03;10316677;28;20116;-74
2021/01/06 17:39:44;;;;;;;23.13;14.88;;;;;;;2.40;94.73;101560.56;10338848;28;20057;-76
2021/01/06 17:44:44;;;;;;;20.45;12.85;;;;;;;2.62;94.82;101589.38;10340445;28;20074;-78
2021/01/06 17:49:45;;;;;;;25.80;14.02;;;;;;;2.02;94.62;101501.81;10367301;28;20038;-77
2021/01/06 17:54:45;;;;;;;19.85;12.63;;;;;;;2.69;93.93;101605.06;10375897;28;20036;-77
2021/01/06 17:59:46;;;;;;;27.10;16.42;;;;;;;2.41;94.57;101567.50;10343007;28;20037;-77
2021/01/06 18:04:46;;;;;;;24.13;14.35;;;;;;;2.49;94.70;101580.22;10359747;28;20030;-77
2021/01/06 18:09:50;;;;;;;24.42;13.73;;;;;;;2.68;94.32;101603.44;10356953;28;20038;-77
2021/01/06 18:14:52;;;;;;;19.77;12.75;;;;;;;2.60;94.90;101599.53;10359275;28;20050;-76
2021/01/06 18:19:55;;;;;;;24.75;13.30;;;;;;;2.60;95.59;101604.09;10361507;28;20041;-76
2021/01/06 18:24:55;;;;;;;21.08;13.05;;;;;;;2.23;95.03;101550.34;10351193;28;20473;-79
2021/01/06 18:29:57;;;;;;;19.70;12.02;;;;;;;2.61;94.71;101616.34;10337005;28;20022;-78
2021/01/06 18:35:12;;;;;;;20.73;11.68;;;;;;;2.46;95.10;101588.78;10355833;28;20029;-79
2021/01/06 18:40:20;;;;;;;20.25;11.32;;;;;;;2.44;94.97;101588.25;10359728;28;20034;-79
2021/01/06 18:45:25;;;;;;;18.35;8.32;;;;;;;2.57;94.04;101607.34;10351461;28;20034;-78
2021/01/06 18:50:26;;;;;;;15.63;9.85;;;;;;;1.95;93.65;101512.00;10349526;28;20651;-79
2021/01/06 18:55:30;;;;;;;11.38;6.78;;;;;;;2.29;92.94;101585.78;10326270;28;20033;-78
2021/01/06 19:00:31;;;;;;;14.05;6.85;;;;;;;2.45;92.49;101595.19;10325532;28;20046;-77
2021/01/06 19:05:43;;;;;;;15.02;7.18;;;;;;;2.46;92.62;101596.78;10363574;28;20520;-76
2021/01/06 19:10:43;;;;;;;13.95;6.97;;;;;;;2.48;92.74;101599.16;10367802;28;20033;-77
2021/01/06 19:15:46;;;;;;;12.27;7.10;;;;;;;2.23;92.36;101560.22;10363145;28;20053;-77
2021/01/06 19:20:46;;;;;;;13.35;6.47;;;;;;;2.47;91.84;101603.72;10319861;28;20042;-78
2021/01/06 19:25:49;;;;;;;14.48;6.72;;;;;;;2.35;91.67;101599.84;10349953;28;20042;-80
2021/01/06 19:30:50;;;;;;;;;;;;;;;2.43;91.30;101605.34;10335929;28;20037;-79
2021/01/06 19:35:51;;;;;;;13.20;6.68;;;;;;;2.44;92.22;101604.25;10357417;28;20357;-76
2021/01/06 19:40:59;;;;;;;13.23;6.40;;;;;;;2.29;92.34;101585.78;10340918;28;20044;-77
2021/01/06 19:45:59;;;;;;;13.10;5.85;;;;;;;2.38;92.68;101609.97;10345873;28;21312;-76
2021/01/06 19:51:02;;;;;;;9.73;5.78;;;;;;;2.32;91.86;101601.22;10332400;28;20049;-77
2021/01/06 19:56:07;;;;;;;11.48;4.90;;;;;;;2.34;92.44;101599.06;10378085;28;20034;-75
2021/01/06 20:01:22;;;;;;;9.15;4.55;;;;;;;2.23;92.64;101592.25;10336171;28;20049;-75
2021/01/06 20:06:23;;;;;;;10.13;4.45;;;;;;;1.26;92.75;101442.91;10311720;28;20492;-77
2021/01/06 20:11:25;;;;;;;10.63;4.70;;;;;;;2.21;93.05;101589.06;10349738;28;20104;-77
2021/01/06 20:16:25;;;;;;;7.88;4.50;;;;;;;1.85;92.52;101533.44;10338922;28;20598;-78
2021/01/06 20:21:27;;;;;;;8.90;4.57;;;;;;;2.21;92.36;101584.53;10346575;28;20030;-84
2021/01/06 20:26:28;;;;;;;12.03;5.27;;;;;;;1.74;91.85;101510.63;10329458;28;20038;-76
2021/01/06 20:31:29;;;;;;;8.18;4.85;;;;;;;1.88;91.28;101528.34;10354346;28;20037;-75
2021/01/06 20:36:30;;;;;;;9.43;4.90;;;;;;;2.28;90.44;101584.19;10357838;28;20818;-79
2021/01/06 20:41:34;;;;;;;12.75;6.85;;;;;;;1.97;90.10;101520.50;10367044;28;20091;-76
2021/01/06 20:46:36;;;;;;;9.93;3.80;;;;;;;1.76;88.90;101471.16;10362853;28;20608;-78
2021/01/06 20:51:37;;;;;;;7.68;3.22;;;;;;;2.07;88.37;101515.09;10342612;28;20723;-76
2021/01/06 20:56:38;;;;;;;14.43;4.23;;;;;;;2.29;87.82;101543.09;10342680;28;20125;-77
2021/01/06 21:01:38;;;;;;;7.18;3.83;;;;;;;2.25;88.73;101547.41;10362278;28;20317;-80
2021/01/06 21:06:39;;;;;;;10.05;4.43;;;;;;;2.24;88.68;101545.84;10337338;28;20048;-77
2021/01/06 21:11:39;;;;;;;9.30;4.63;;;;;;;1.92;89.91;101507.25;10364070;28;20050;-78
2021/01/06 21:16:40;;;;;;;11.43;4.88;;;;;;;2.10;90.22;101540.38;10357074;28;20306;-77
2021/01/06 21:21:40;;;;;;;10.52;4.53;;;;;;;2.25;91.00;101564.19;10334430;28;20191;-77
2021/01/06 21:26:44;;;;;;;12.98;4.40;;;;;;;1.76;91.20;101492.50;10347014;28;20284;-77
2021/01/06 21:31:45;;;;;;;7.75;4.10;;;;;;;1.86;91.24;101503.06;10332453;28;20025;-77
2021/01/06 21:36:45;;;;;;;8.20;4.28;;;;;;;1.87;91.21;101504.63;10342641;28;20074;-77
2021/01/06 21:41:46;;;;;;;8.30;3.92;;;;;;;1.55;91.85;101455.38;10312555;28;20030;-79
2021/01/06 21:46:47;;;;;;;6.30;3.95;;;;;;;1.63;91.33;101473.44;10346989;28;20042;-80
2021/01/06 21:51:50;;;;;;;;;;;;;;;2.14;92.46;101545.94;10345966;28;20037;-80
2021/01/06 21:56:52;;;;;;;15.07;6.43;;;;;;;1.06;92.26;101395.19;10339602;28;20303;-78
2021/01/06 22:01:53;;;;;;;7.00;3.97;;;;;;;2.13;92.31;101539.03;10340727;28;20045;-77
2021/01/06 22:06:58;;;;;;;7.05;3.22;;;;;;;1.59;93.14;101472.41;10342473;28;20049;-80
2021/01/06 22:11:58;;;;;;;5.78;3.33;;;;;;;1.95;92.94;101522.66;10335423;28;20049;-76
2021/01/06 22:16:59;;;;;;;4.82;2.72;;;;;;;1.67;93.03;101490.47;10334344;28;20904;-81
2021/01/06 22:21:59;;;;;;;6.45;2.70;;;;;;;1.61;92.95;101469.47;10345677;28;20046;-77
2021/01/06 22:27:00;;;;;;;6.93;2.80;;;;;;;2.01;92.50;101540.22;10333778;28;20037;-78
2021/01/06 22:32:00;;;;;;;8.52;2.63;;;;;;;1.72;92.45;101496.78;10377710;28;20041;-78
2021/01/06 22:37:04;;;;;;;5.97;2.40;;;;;;;1.42;92.39;101461.41;10325379;28;20050;-79
2021/01/06 22:42:11;;;;;;;6.13;2.72;;;;;;;1.89;91.68;101529.16;10356355;28;20057;-81
2021/01/06 22:47:12;;;;;;;6.07;2.40;;;;;;;1.89;91.68;101523.81;10384224;28;20539;-77
2021/01/06 22:52:15;;;;;;;7.50;2.03;;;;;;;1.93;91.35;101511.50;10391200;28;20042;-79
2021/01/06 22:57:16;;;;;;;4.85;1.85;;;;;;;2.00;92.06;101503.97;10371426;28;20042;-78
2021/01/06 23:02:16;;;;;;;4.22;2.00;;;;;;;2.06;92.81;101502.03;10374275;28;20052;-80
2021/01/06 23:07:16;;;;;;;4.47;1.63;;;;;;;1.94;94.21;101467.75;10340436;28;20045;-81
2021/01/06 23:12:17;;;;;;;5.57;1.98;;;;;;;1.96;94.25;101465.59;10356927;28;20460;-80
2021/01/06 23:17:18;;;;;;;4.57;1.83;;;;;;;1.71;94.67;101425.91;10369196;28;20378;-80
2021/01/06 23:22:18;;;;;;;6.97;1.90;;;;;;;1.39;93.99;101376.72;10361034;28;20044;-78
2021/01/06 23:27:18;;;;;;;5.50;2.22;;;;;;;2.09;94.29;101491.59;10368571;28;20079;-79
2021/01/06 23:32:19;;;;;;;5.90;2.30;;;;;;;2.14;94.65;101492.59;10351015;28;20053;-78
2021/01/06 23:37:19;;;;;;;6.38;2.03;;;;;;;2.15;94.88;101491.53;10367754;28;20046;-78
2021/01/06 23:42:20;;;;;;;4.82;2.25;;;;;;;2.06;94.84;101486.81;10373235;28;20038;-79
2021/01/06 23:47:20;;;;;;;5.13;2.17;;;;;;;2.02;95.26;101501.00;10350703;28;20033;-78
2021/01/06 23:52:21;;;;;;;4.35;2.17;;;;;;;1.94;95.24;101499.75;10351977;28;20041;-78
2021/01/06 23:57:21;;;;;;;6.00;3.10;;;;;;;1.86;95.77;101492.41;10369015;28;20407;-81
